Time;durP1;ratioP1;P1;durP2;ratioP2;P2;SDS_P1;SDS_P2;PMS_P1;PMS_P2;Temp;Humidity;BMP_temperature;BMP_pressure;BME280_temperature;BME280_humidity;BME280_pressure;Samples;Min_cycle;Max_cycle;Signal;HPM_P1;HPM_P2
2023/08/03 00:00:11;;;;;;;12.57;10.85;;;;;;;20.98;98.41;92709.91;5059501;28;20095;-72
2023/08/03 00:02:38;;;;;;;11.00;10.10;;;;;;;20.93;98.05;92703.72;5063735;28;20044;-73
2023/08/03 00:05:05;;;;;;;13.02;12.02;;;;;;;20.73;97.66;92683.91;5065505;28;20118;-72
2023/08/03 00:07:33;;;;;;;11.27;10.38;;;;;;;20.76;97.53;92693.78;5062812;28;20137;-73
2023/08/03 00:10:02;;;;;;;11.55;10.45;;;;;;;20.79;97.80;92703.66;5062188;28;20056;-73
2023/08/03 00:12:28;;;;;;;11.70;10.80;;;;;;;20.80;98.32;92713.06;5065087;28;20075;-73
2023/08/03 00:14:55;;;;;;;12.50;11.60;;;;;;;20.76;98.86;92706.84;5062481;28;20044;-73
2023/08/03 00:17:22;;;;;;;11.18;10.07;;;;;;;20.72;100.00;92705.84;5063099;28;20074;-73
2023/08/03 00:19:49;;;;;;;12.80;11.63;;;;;;;20.65;99.36;92703.59;5065532;28;20094;-73
2023/08/03 00:22:15;;;;;;;11.88;10.88;;;;;;;20.58;99.71;92705.03;5063427;28;20053;-72
2023/08/03 00:24:42;;;;;;;12.55;11.25;;;;;;;20.55;100.00;92704.53;5062635;28;20098;-72
2023/08/03 00:27:10;;;;;;;12.52;11.55;;;;;;;20.52;100.00;92699.91;5066150;28;20107;-73
2023/08/03 00:29:37;;;;;;;10.98;9.73;;;;;;;20.46;100.00;92698.41;5069422;28;20086;-73
2023/08/03 00:32:05;;;;;;;10.48;9.57;;;;;;;20.25;100.00;92677.88;5068193;28;20093;-72
2023/08/03 00:34:31;;;;;;;11.82;10.85;;;;;;;20.35;100.00;92699.63;5072096;28;20048;-72
2023/08/03 00:36:58;;;;;;;11.63;10.43;;;;;;;20.35;100.00;92705.63;5067924;28;20095;-72
2023/08/03 00:39:25;;;;;;;11.57;10.65;;;;;;;20.35;100.00;92705.63;5071257;28;20051;-72
2023/08/03 00:41:53;;;;;;;11.50;10.48;;;;;;;20.31;100.00;92702.03;5067618;28;20114;-73
2023/08/03 00:44:21;;;;;;;10.10;9.20;;;;;;;20.29;100.00;92696.31;5072105;28;20114;-73
2023/08/03 00:46:48;;;;;;;11.25;10.35;;;;;;;20.26;100.00;92695.06;5071607;28;20903;-73
2023/08/03 00:49:15;;;;;;;10.75;9.75;;;;;;;20.21;100.00;92692.53;5068369;28;20052;-73
2023/08/03 00:51:41;;;;;;;11.73;10.45;;;;;;;20.26;100.00;92696.88;5072038;28;20040;-73
2023/08/03 00:54:08;;;;;;;11.15;10.25;;;;;;;20.22;100.00;92695.91;5072859;28;20788;-74
2023/08/03 00:56:35;;;;;;;12.38;11.18;;;;;;;20.22;100.00;92696.66;5072500;28;20338;-74
2023/08/03 00:59:02;;;;;;;11.20;10.20;;;;;;;20.19;100.00;92689.44;5070580;28;20779;-74
2023/08/03 01:01:30;;;;;;;12.38;11.00;;;;;;;20.22;100.00;92691.47;5070374;28;20105;-74
2023/08/03 01:03:57;;;;;;;10.82;9.93;;;;;;;20.03;100.00;92668.78;5065892;28;20114;-74
2023/08/03 01:06:24;;;;;;;10.93;9.93;;;;;;;20.15;100.00;92696.25;5070262;28;20240;-73
2023/08/03 01:08:51;;;;;;;12.05;11.07;;;;;;;20.11;100.00;92703.09;5070749;28;20618;-73
2023/08/03 01:11:17;;;;;;;10.90;9.98;;;;;;;20.05;100.00;92701.59;5066880;28;20052;-73
2023/08/03 01:13:44;;;;;;;12.07;11.07;;;;;;;19.96;100.00;92702.25;5068830;28;20044;-73
2023/08/03 01:16:11;;;;;;;11.27;10.38;;;;;;;19.93;100.00;92701.97;5068784;28;20054;-73
2023/08/03 01:18:42;;;;;;;12.30;11.30;;;;;;;19.81;100.00;92690.13;5069394;28;20097;-73
2023/08/03 01:21:10;;;;;;;11.80;10.85;;;;;;;19.84;100.00;92699.22;5071222;28;20063;-73
2023/08/03 01:23:38;;;;;;;12.38;11.38;;;;;;;19.76;100.00;92701.41;5071511;28;20045;-73
2023/08/03 01:26:05;;;;;;;12.52;11.50;;;;;;;19.75;100.00;92697.25;5071942;28;20430;-73
2023/08/03 01:28:31;;;;;;;12.20;11.20;;;;;;;19.70;100.00;92694.72;5068179;28;20059;-73
2023/08/03 01:30:58;;;;;;;12.20;11.20;;;;;;;19.66;100.00;92698.16;5072261;28;20490;-73
2023/08/03 01:33:25;;;;;;;11.98;10.82;;;;;;;19.56;100.00;92684.19;5070107;28;20053;-74
2023/08/03 01:35:55;;;;;;;9.55;8.60;;;;;;;19.61;100.00;92694.56;5072011;28;20052;-74
2023/08/03 01:38:22;;;;;;;13.27;12.13;;;;;;;19.58;100.00;92702.16;5069003;28;20094;-73
2023/08/03 01:40:51;;;;;;;12.35;11.35;;;;;;;19.45;100.00;92693.16;5066103;28;20045;-74
2023/08/03 01:43:17;;;;;;;11.95;10.95;;;;;;;19.44;100.00;92696.84;5067081;28;20127;-74
2023/08/03 01:45:44;;;;;;;11.82;10.70;;;;;;;19.39;100.00;92705.47;5068321;28;20044;-74
2023/08/03 01:48:11;;;;;;;12.38;11.38;;;;;;;19.38;100.00;92706.50;5065622;28;20434;-73
2023/08/03 01:50:38;;;;;;;12.35;11.20;;;;;;;19.34;100.00;92701.09;5067798;28;20494;-74
2023/08/03 01:53:04;;;;;;;11.65;10.65;;;;;;;19.32;100.00;92700.59;5068722;28;20057;-74
2023/08/03 01:55:31;;;;;;;12.65;11.50;;;;;;;19.32;100.00;92705.03;5066047;28;20044;-74
2023/08/03 01:57:59;;;;;;;12.52;11.32;;;;;;;19.32;100.00;92705.81;5069038;28;20040;-73
2023/08/03 02:00:26;;;;;;;12.32;11.32;;;;;;;19.34;100.00;92710.72;5068901;28;20044;-73
2023/08/03 02:02:53;;;;;;;12.95;10.80;;;;;;;19.31;100.00;92700.88;5068453;28;20048;-77
2023/08/03 02:05:19;;;;;;;11.18;10.25;;;;;;;19.27;100.00;92689.44;5068564;28;20840;-73
2023/08/03 02:07:53;;;;;;;12.73;11.52;;;;;;;19.38;100.00;92705.75;5068420;28;20414;-73
2023/08/03 02:10:22;;;;;;;11.98;10.88;;;;;;;19.39;100.00;92702.09;5068322;28;20056;-73
2023/08/03 02:12:49;;;;;;;12.05;10.85;;;;;;;19.36;100.00;92704.19;5067907;28;20573;-74
2023/08/03 02:15:17;;;;;;;11.88;10.75;;;;;;;19.34;100.00;92708.13;5067926;28;20041;-74
2023/08/03 02:17:44;;;;;;;12.70;11.70;;;;;;;19.33;100.00;92702.16;5066859;28;20049;-73
2023/08/03 02:20:12;;;;;;;13.07;12.00;;;;;;;19.22;100.00;92685.84;5066284;28;20044;-73
2023/08/03 02:22:40;;;;;;;13.50;12.40;;;;;;;19.19;100.00;92690.81;5066799;28;20107;-74
2023/08/03 02:25:07;;;;;;;13.43;12.05;;;;;;;19.27;100.00;92702.47;5068039;28;20106;-74
2023/08/03 02:27:34;;;;;;;13.98;12.88;;;;;;;19.24;100.00;92701.19;5067727;28;20272;-73
2023/08/03 02:30:00;;;;;;;13.35;12.38;;;;;;;19.24;100.00;92709.00;5066526;28;20048;-73
2023/08/03 02:32:29;;;;;;;13.98;12.88;;;;;;;19.20;100.00;92700.97;5067212;28;20061;-73
2023/08/03 02:34:55;;;;;;;17.60;15.85;;;;;;;19.19;100.00;92698.63;5067960;28;20098;-73
2023/08/03 02:37:22;;;;;;;16.13;14.73;;;;;;;19.18;100.00;92710.91;5064700;28;20063;-73
2023/08/03 02:39:49;;;;;;;14.57;13.30;;;;;;;19.17;100.00;92703.34;5067911;28;20052;-74
2023/08/03 02:42:16;;;;;;;16.25;14.75;;;;;;;19.17;100.00;92705.97;5067521;28;20110;-74
2023/08/03 02:44:42;;;;;;;14.63;13.40;;;;;;;19.18;100.00;92713.50;5066911;28;20403;-75
2023/08/03 02:47:09;;;;;;;14.57;13.27;;;;;;;19.15;100.00;92697.63;5062578;28;20041;-73
2023/08/03 02:49:37;;;;;;;14.50;13.38;;;;;;;19.14;100.00;92706.50;5064157;28;20053;-73
2023/08/03 02:52:05;;;;;;;13.93;12.70;;;;;;;19.10;100.00;92706.28;5065514;28;20052;-73
2023/08/03 02:54:34;;;;;;;14.77;13.20;;;;;;;19.07;100.00;92707.59;5067795;28;20044;-73
2023/08/03 02:57:01;;;;;;;14.30;13.10;;;;;;;18.97;100.00;92707.66;5063932;28;20041;-74
2023/08/03 02:59:28;;;;;;;16.40;14.77;;;;;;;18.99;100.00;92712.59;5064127;28;20056;-74
2023/08/03 03:01:54;;;;;;;16.13;14.73;;;;;;;18.94;100.00;92711.59;5067656;28;20541;-74
2023/08/03 03:04:21;;;;;;;15.38;14.18;;;;;;;18.90;100.00;92715.81;5066333;28;20048;-74
2023/08/03 03:06:49;;;;;;;14.27;13.07;;;;;;;18.88;100.00;92715.28;5062738;28;20106;-74
2023/08/03 03:09:16;;;;;;;15.30;13.90;;;;;;;18.89;100.00;92726.47;5064663;28;20048;-73
2023/08/03 03:11:43;;;;;;;13.25;12.13;;;;;;;18.88;100.00;92710.06;5061404;28;20052;-74
2023/08/03 03:14:09;;;;;;;13.82;12.73;;;;;;;18.87;100.00;92721.53;5064824;28;20048;-74
2023/08/03 03:16:36;;;;;;;15.02;13.73;;;;;;;18.82;100.00;92730.19;5065562;28;20052;-73
2023/08/03 03:19:03;;;;;;;17.13;15.63;;;;;;;18.84;100.00;92735.09;5066862;28;20082;-73
2023/08/03 03:21:30;;;;;;;15.25;14.00;;;;;;;18.85;100.00;92733.28;5065790;28;20106;-72
2023/08/03 03:23:58;;;;;;;14.77;13.52;;;;;;;18.85;100.00;92739.25;5065519;28;20810;-73
2023/08/03 03:26:24;;;;;;;17.05;15.25;;;;;;;18.87;100.00;92739.75;5066967;28;20567;-73
2023/08/03 03:28:51;;;;;;;15.43;13.93;;;;;;;18.85;100.00;92734.06;5065625;28;20101;-73
2023/08/03 03:31:18;;;;;;;15.52;14.13;;;;;;;18.84;100.00;92740.28;5065818;28;20045;-73
2023/08/03 03:33:44;;;;;;;16.55;15.30;;;;;;;18.83;100.00;92741.34;5066353;28;20048;-73
2023/08/03 03:36:11;;;;;;;16.38;15.07;;;;;;;18.80;100.00;92739.31;5065635;28;20048;-73
2023/08/03 03:38:38;;;;;;;14.63;13.43;;;;;;;18.78;100.00;92739.56;5066522;28;20449;-74
2023/08/03 03:41:06;;;;;;;16.83;15.43;;;;;;;18.81;100.00;92746.06;5066549;28;20098;-74
2023/08/03 03:43:32;;;;;;;16.65;15.32;;;;;;;18.73;100.00;92726.59;5063653;28;20110;-73
2023/08/03 03:46:00;;;;;;;17.35;16.15;;;;;;;18.79;100.00;92741.13;5065623;28;20834;-74
2023/08/03 03:48:27;;;;;;;18.30;16.75;;;;;;;18.68;100.00;92724.81;5066387;28;20872;-73
2023/08/03 03:50:54;;;;;;;18.55;17.15;;;;;;;18.78;100.00;92738.78;5064177;28;20173;-73
2023/08/03 03:53:21;;;;;;;16.15;14.95;;;;;;;18.75;100.00;92726.34;5066766;28;20473;-74
2023/08/03 03:55:47;;;;;;;17.67;16.17;;;;;;;18.83;100.00;92736.94;5066837;28;20561;-74
2023/08/03 03:58:15;;;;;;;18.45;16.90;;;;;;;18.85;100.00;92738.47;5066250;28;20110;-74
2023/08/03 04:00:43;;;;;;;17.33;15.88;;;;;;;18.88;100.00;92746.50;5064586;28;20049;-74
2023/08/03 04:03:09;;;;;;;18.92;17.25;;;;;;;18.88;100.00;92745.75;5063960;28;20049;-74
2023/08/03 04:05:38;;;;;;;17.95;16.35;;;;;;;18.93;100.00;92748.31;5060573;28;20787;-74
2023/08/03 04:08:05;;;;;;;18.67;17.08;;;;;;;18.87;100.00;92742.34;5061441;28;20044;-74
2023/08/03 04:10:35;;;;;;;17.75;16.30;;;;;;;18.98;100.00;92752.69;5062679;28;20048;-75
2023/08/03 04:13:02;;;;;;;18.25;16.42;;;;;;;19.00;100.00;92747.97;5061679;28;20171;-74
2023/08/03 04:15:30;;;;;;;19.80;18.10;;;;;;;19.04;100.00;92755.00;5059524;28;20054;-73
2023/08/03 04:17:56;;;;;;;20.27;18.42;;;;;;;19.08;100.00;92753.41;5060240;28;20145;-74
2023/08/03 04:20:23;;;;;;;19.60;18.20;;;;;;;19.13;100.00;92750.00;5060269;28;20045;-74
2023/08/03 04:22:50;;;;;;;18.38;16.50;;;;;;;19.18;100.00;92752.56;5064933;28;20106;-74
2023/08/03 04:25:17;;;;;;;20.02;18.38;;;;;;;19.20;100.00;92753.03;5058463;28;20044;-74
2023/08/03 04:27:44;;;;;;;19.27;17.75;;;;;;;19.19;100.00;92748.88;5059596;28;20041;-75
2023/08/03 04:30:13;;;;;;;21.05;18.85;;;;;;;19.25;100.00;92751.44;5060276;28;20060;-74
2023/08/03 04:32:41;;;;;;;20.95;19.27;;;;;;;19.31;100.00;92755.56;5060328;28;20848;-74
2023/08/03 04:35:09;;;;;;;18.63;16.98;;;;;;;19.36;100.00;92753.66;5061121;28;20048;-74
2023/08/03 04:37:35;;;;;;;18.83;17.15;;;;;;;19.42;100.00;92758.81;5064991;28;20053;-73
2023/08/03 04:40:06;;;;;;;20.40;18.50;;;;;;;19.44;100.00;92759.34;5066291;28;20049;-74
2023/08/03 04:42:32;;;;;;;19.40;17.90;;;;;;;19.49;100.00;92759.28;5065575;28;20043;-73
2023/08/03 04:44:59;;;;;;;20.23;18.67;;;;;;;19.63;100.00;92764.63;5065849;28;20095;-74
2023/08/03 04:47:26;;;;;;;19.52;17.75;;;;;;;19.68;100.00;92767.19;5065208;28;20041;-74
2023/08/03 04:49:54;;;;;;;18.65;17.02;;;;;;;19.75;100.00;92772.81;5065814;28;20056;-75
2023/08/03 04:52:21;;;;;;;22.10;20.40;;;;;;;19.79;100.00;92774.84;5060857;28;20098;-75
2023/08/03 04:54:48;;;;;;;19.55;17.92;;;;;;;19.75;100.00;92774.63;5063938;28;20041;-75
2023/08/03 04:57:15;;;;;;;21.20;19.23;;;;;;;19.77;100.00;92778.53;5065915;28;20048;-75
2023/08/03 04:59:42;;;;;;;19.55;17.95;;;;;;;19.79;100.00;92780.06;5065830;28;20098;-74
2023/08/03 05:02:08;;;;;;;22.10;20.40;;;;;;;19.93;100.00;92777.56;5062301;28;20061;-73
2023/08/03 05:04:35;;;;;;;20.52;18.17;;;;;;;20.02;100.00;92779.31;5062913;28;20114;-73
2023/08/03 05:07:04;;;;;;;21.30;19.63;;;;;;;20.18;100.00;92781.72;5065790;28;20044;-73
2023/08/03 05:09:30;;;;;;;21.65;19.98;;;;;;;20.18;100.00;92771.28;5065013;28;20567;-73
2023/08/03 05:11:57;;;;;;;20.52;18.90;;;;;;;20.12;100.00;92751.56;5061133;28;20098;-74
2023/08/03 05:14:24;;;;;;;18.55;16.77;;;;;;;20.40;100.00;92777.81;5067189;28;20049;-74
2023/08/03 05:16:51;;;;;;;17.67;15.95;;;;;;;20.52;100.00;92783.41;5065250;28;20041;-73
2023/08/03 05:19:17;;;;;;;18.92;17.33;;;;;;;20.65;100.00;92784.50;5067562;28;20049;-73
2023/08/03 05:21:44;;;;;;;21.20;19.23;;;;;;;20.77;100.00;92788.50;5068541;28;20502;-73
2023/08/03 05:24:12;;;;;;;21.58;19.27;;;;;;;20.89;100.00;92791.50;5069467;28;20051;-74
2023/08/03 05:26:39;;;;;;;19.55;18.10;;;;;;;21.00;100.00;92792.13;5067744;28;20494;-73
2023/08/03 05:29:05;;;;;;;18.17;16.50;;;;;;;21.11;100.00;92791.97;5068227;28;20056;-73
2023/08/03 05:31:32;;;;;;;18.38;16.67;;;;;;;21.20;100.00;92792.88;5064742;28;20540;-73
2023/08/03 05:33:59;;;;;;;20.58;18.02;;;;;;;21.25;100.00;92797.22;5067924;28;20048;-73
2023/08/03 05:36:26;;;;;;;19.60;18.10;;;;;;;21.28;100.00;92791.44;5068545;28;20044;-73
2023/08/03 05:38:54;;;;;;;21.45;18.67;;;;;;;21.43;100.00;92798.25;5064675;28;20399;-73
2023/08/03 05:41:25;;;;;;;19.88;17.90;;;;;;;21.39;100.00;92769.31;5067678;28;20058;-73
2023/08/03 05:43:52;;;;;;;22.27;18.00;;;;;;;21.68;100.00;92796.22;5067015;28;20044;-73
2023/08/03 05:46:19;;;;;;;22.23;16.08;;;;;;;21.74;100.00;92797.72;5067010;28;20137;-74
2023/08/03 05:48:48;;;;;;;19.10;17.13;;;;;;;21.80;100.00;92790.56;5069128;28;20056;-73
2023/08/03 05:51:23;;;;;;;22.83;18.42;;;;;;;21.99;100.00;92798.31;5067958;28;20052;-73
2023/08/03 05:53:50;;;;;;;21.40;18.30;;;;;;;22.16;100.00;92802.94;5067729;28;20098;-73
2023/08/03 05:56:17;;;;;;;18.95;16.88;;;;;;;22.29;97.75;92791.72;5063680;28;20045;-73
2023/08/03 05:58:45;;;;;;;21.73;16.65;;;;;;;22.43;99.73;92803.97;5066205;28;20468;-74
2023/08/03 06:01:12;;;;;;;22.83;18.67;;;;;;;22.37;99.46;92794.69;5066865;28;20456;-73
2023/08/03 06:03:43;;;;;;;23.40;16.00;;;;;;;22.60;99.43;92808.63;5066968;28;20068;-73
2023/08/03 06:06:11;;;;;;;26.15;18.67;;;;;;;22.73;96.74;92808.88;5068547;28;20131;-73
2023/08/03 06:08:47;;;;;;;21.65;16.27;;;;;;;22.96;96.30;92813.06;5062936;28;20489;-74
2023/08/03 06:11:16;;;;;;;26.35;17.45;;;;;;;23.14;93.58;92813.19;5065420;28;20052;-73
2023/08/03 06:13:44;;;;;;;27.88;15.05;;;;;;;23.32;93.57;92800.22;5067088;28;20048;-74
2023/08/03 06:16:13;;;;;;;25.60;16.55;;;;;;;23.66;91.99;92811.19;5066195;28;20051;-73
2023/08/03 06:18:47;;;;;;;43.00;18.40;;;;;;;23.84;90.80;92798.94;5065942;28;20040;-73
2023/08/03 06:21:14;;;;;;;22.52;15.88;;;;;;;24.21;89.01;92811.91;5064636;28;20056;-73
2023/08/03 06:23:44;;;;;;;31.98;15.20;;;;;;;24.40;87.92;92804.50;5066386;28;20052;-73
2023/08/03 06:26:13;;;;;;;36.72;17.45;;;;;;;24.66;85.79;92806.41;5061832;28;20075;-74
2023/08/03 06:28:41;;;;;;;27.25;14.82;;;;;;;24.76;84.37;92810.56;5066949;28;20110;-74
2023/08/03 06:31:14;;;;;;;31.00;15.45;;;;;;;24.72;82.88;92780.78;5067392;28;20044;-74
2023/08/03 06:33:41;;;;;;;44.70;15.75;;;;;;;24.95;84.04;92806.91;5063442;28;20142;-74
2023/08/03 06:36:11;;;;;;;23.70;13.65;;;;;;;25.10;81.04;92805.66;5067496;28;20453;-74
2023/08/03 06:38:37;;;;;;;17.20;13.93;;;;;;;25.22;80.39;92811.03;5064501;28;20052;-74
2023/08/03 06:41:05;;;;;;;18.77;12.43;;;;;;;25.34;79.54;92797.28;5067598;28;20521;-74
2023/08/03 06:43:31;;;;;;;31.70;13.65;;;;;;;25.63;78.32;92808.19;5065235;28;20094;-74
2023/08/03 06:45:58;;;;;;;22.50;11.70;;;;;;;25.84;77.17;92805.66;5067840;28;20094;-74
2023/08/03 06:48:26;;;;;;;22.33;11.70;;;;;;;26.11;77.17;92813.44;5064890;28;20052;-73
2023/08/03 06:50:55;;;;;;;19.73;12.02;;;;;;;26.58;76.18;92814.44;5063804;28;20430;-74
2023/08/03 06:53:22;;;;;;;21.17;12.38;;;;;;;27.00;74.70;92808.41;5065795;28;20056;-74
2023/08/03 06:55:49;;;;;;;21.27;10.35;;;;;;;27.33;71.60;92811.09;5065674;28;20075;-74
2023/08/03 06:58:17;;;;;;;21.98;10.68;;;;;;;27.67;69.45;92810.31;5067444;28;20048;-74
2023/08/03 07:00:44;;;;;;;17.90;9.68;;;;;;;27.92;68.27;92805.84;5063619;28;20056;-75
2023/08/03 07:03:11;;;;;;;19.45;10.50;;;;;;;28.25;68.27;92804.19;5064953;28;20045;-74
2023/08/03 07:05:40;;;;;;;18.55;9.77;;;;;;;28.61;66.45;92799.19;5065164;28;20040;-74
2023/08/03 07:08:06;;;;;;;14.57;8.52;;;;;;;28.88;66.04;92804.88;5067557;28;20123;-74
2023/08/03 07:10:34;;;;;;;24.63;10.10;;;;;;;29.22;64.19;92800.13;5065768;28;20642;-74
2023/08/03 07:13:00;;;;;;;19.15;8.63;;;;;;;29.53;62.59;92801.31;5062831;28;20494;-74
2023/08/03 07:15:33;;;;;;;14.43;8.27;;;;;;;29.82;60.53;92801.25;5066209;28;20048;-74
2023/08/03 07:18:00;;;;;;;13.93;8.50;;;;;;;30.07;59.60;92801.84;5064332;28;20048;-74
2023/08/03 07:20:26;;;;;;;12.73;8.32;;;;;;;30.32;58.49;92799.03;5063420;28;20564;-74
2023/08/03 07:22:54;;;;;;;15.50;7.82;;;;;;;30.58;57.98;92807.50;5066825;28;20055;-73
2023/08/03 07:25:21;;;;;;;22.35;8.57;;;;;;;30.72;57.04;92804.41;5062155;28;20098;-73
2023/08/03 07:27:48;;;;;;;20.83;10.07;;;;;;;30.95;56.78;92809.78;5064401;28;20068;-74
2023/08/03 07:30:18;;;;;;;11.45;7.55;;;;;;;31.06;55.52;92794.09;5066023;28;20048;-73
2023/08/03 07:32:45;;;;;;;16.30;9.07;;;;;;;31.19;54.43;92814.03;5061182;28;20094;-73
2023/08/03 07:35:11;;;;;;;17.30;7.80;;;;;;;31.40;54.71;92798.91;5064335;28;20494;-73
2023/08/03 07:37:38;;;;;;;16.00;8.35;;;;;;;31.75;53.61;92805.97;5063852;28;20052;-74
2023/08/03 07:40:08;;;;;;;23.77;10.20;;;;;;;32.00;52.12;92810.91;5063507;28;20053;-74
2023/08/03 07:42:35;;;;;;;14.02;7.80;;;;;;;31.83;50.88;92782.91;5066961;28;20051;-74
2023/08/03 07:45:02;;;;;;;13.40;6.97;;;;;;;32.21;51.65;92809.72;5064482;28;20036;-74
2023/08/03 07:47:30;;;;;;;16.17;8.27;;;;;;;32.15;49.95;92803.19;5065091;28;20632;-74
2023/08/03 07:49:57;;;;;;;15.57;8.00;;;;;;;32.32;50.00;92800.00;5064756;28;20137;-73
2023/08/03 07:52:24;;;;;;;11.82;7.20;;;;;;;32.30;49.08;92767.69;5066261;28;20157;-74
2023/08/03 07:54:51;;;;;;;6.63;5.38;;;;;;;32.36;48.84;92792.84;5065425;28;20102;-74
2023/08/03 07:57:19;;;;;;;12.60;7.78;;;;;;;32.06;51.18;92795.47;5063648;28;20045;-73
2023/08/03 07:59:49;;;;;;;14.38;7.50;;;;;;;32.22;49.95;92793.41;5063337;28;21191;-73
2023/08/03 08:02:16;;;;;;;11.77;7.03;;;;;;;32.66;50.32;92789.47;5062308;28;20075;-74
2023/08/03 08:04:42;;;;;;;8.68;5.70;;;;;;;32.92;49.08;92795.84;5062743;28;20440;-74
2023/08/03 08:07:09;;;;;;;7.18;5.43;;;;;;;33.12;47.67;92792.31;5065528;28;20102;-75
2023/08/03 08:09:36;;;;;;;6.82;5.40;;;;;;;33.25;46.14;92796.25;5060974;28;20078;-75
2023/08/03 08:12:05;;;;;;;7.53;5.20;;;;;;;33.40;45.76;92797.16;5064212;28;20966;-75
2023/08/03 08:14:33;;;;;;;5.78;4.93;;;;;;;33.42;45.07;92794.91;5064932;28;20052;-75
2023/08/03 08:19:44;;;;;;;5.37;4.57;;;;;;;33.53;44.82;92786.28;5063697;28;20068;-75
2023/08/03 08:22:11;;;;;;;7.20;4.82;;;;;;;33.57;44.96;92784.41;5063298;28;20064;-75
2023/08/03 08:24:38;;;;;;;7.32;4.97;;;;;;;33.68;45.06;92784.50;5064409;28;20044;-75
2023/08/03 08:27:05;;;;;;;6.03;4.72;;;;;;;33.72;43.42;92788.75;5064193;28;20099;-75
2023/08/03 08:29:34;;;;;;;9.15;5.43;;;;;;;33.78;43.77;92789.16;5059512;28;20041;-75
2023/08/03 08:32:00;;;;;;;8.13;5.03;;;;;;;33.81;42.69;92780.44;5064246;28;20045;-75
2023/08/03 08:34:27;;;;;;;12.27;5.20;;;;;;;33.83;43.32;92780.84;5066151;28;20457;-75
2023/08/03 08:36:55;;;;;;;9.25;5.20;;;;;;;33.75;43.93;92775.81;5065106;28;20098;-75
2023/08/03 08:39:22;;;;;;;8.80;5.00;;;;;;;33.97;43.51;92779.44;5065290;28;20143;-75
2023/08/03 08:41:49;;;;;;;5.75;4.47;;;;;;;33.95;43.03;92776.34;5063608;28;20045;-74
2023/08/03 08:44:16;;;;;;;8.73;4.80;;;;;;;33.98;42.66;92772.97;5066427;28;20076;-74
2023/08/03 08:46:45;;;;;;;6.60;5.43;;;;;;;34.17;42.75;92774.66;5060313;28;20041;-74
2023/08/03 08:49:12;;;;;;;5.68;4.95;;;;;;;34.38;42.79;92771.34;5069503;28;20045;-74
2023/08/03 08:51:41;;;;;;;6.25;4.68;;;;;;;34.55;42.43;92779.03;5068447;28;20512;-75
2023/08/03 08:54:08;;;;;;;6.18;5.47;;;;;;;34.68;40.84;92769.63;5067675;28;20135;-74
2023/08/03 08:56:35;;;;;;;9.55;5.40;;;;;;;34.76;41.96;92767.75;5066064;28;20072;-74
2023/08/03 08:59:02;;;;;;;8.40;5.40;;;;;;;34.68;41.88;92766.94;5068267;28;20057;-74
2023/08/03 09:01:49;;;;;;;5.75;5.10;;;;;;;34.80;41.21;92767.75;5066766;28;20044;-74
2023/08/03 09:04:27;;;;;;;7.78;5.20;;;;;;;34.95;41.81;92766.69;5069185;28;20060;-74
2023/08/03 09:06:54;;;;;;;13.02;6.20;;;;;;;35.08;40.76;92772.41;5068968;28;20118;-74
2023/08/03 09:09:27;;;;;;;8.40;5.22;;;;;;;35.23;40.57;92767.16;5064651;28;20064;-74
2023/08/03 09:11:55;;;;;;;6.43;5.20;;;;;;;35.18;40.04;92754.94;5065967;28;20417;-74
2023/08/03 09:14:23;;;;;;;8.70;5.60;;;;;;;35.30;40.53;92767.94;5069606;28;20045;-75
2023/08/03 09:16:51;;;;;;;9.13;5.50;;;;;;;35.39;40.22;92764.91;5067484;28;20510;-74
2023/08/03 09:19:36;;;;;;;7.20;5.47;;;;;;;35.39;40.06;92762.22;5067507;28;20048;-75
2023/08/03 09:22:03;;;;;;;6.15;5.55;;;;;;;35.30;40.65;92761.81;5066981;28;20044;-75
2023/08/03 09:24:30;;;;;;;9.48;6.15;;;;;;;35.50;40.04;92764.94;5067952;28;20045;-74
2023/08/03 09:26:57;;;;;;;5.97;5.15;;;;;;;35.69;39.25;92758.44;5065380;28;20044;-75
2023/08/03 09:29:28;;;;;;;6.32;4.72;;;;;;;35.74;39.48;92756.56;5066510;28;20054;-74
2023/08/03 09:32:02;;;;;;;7.70;5.60;;;;;;;35.74;39.14;92754.66;5065690;28;20610;-74
2023/08/03 09:34:36;;;;;;;13.52;6.10;;;;;;;36.06;39.13;92756.56;5065846;28;20047;-74
2023/08/03 09:37:03;;;;;;;7.95;5.70;;;;;;;36.15;39.11;92742.03;5063699;28;20041;-74
2023/08/03 09:39:32;;;;;;;7.03;4.85;;;;;;;36.40;38.14;92744.66;5067384;28;20052;-74
2023/08/03 09:42:00;;;;;;;7.25;5.50;;;;;;;36.59;38.32;92745.38;5063829;28;20703;-74
2023/08/03 09:44:28;;;;;;;6.05;5.18;;;;;;;36.47;38.04;92736.63;5063257;28;20585;-75
2023/08/03 09:46:55;;;;;;;7.57;5.38;;;;;;;36.58;37.87;92738.50;5062885;28;20493;-75
2023/08/03 09:49:24;;;;;;;6.03;4.80;;;;;;;36.57;37.38;92739.66;5062879;28;20114;-75
2023/08/03 09:51:53;;;;;;;7.35;4.90;;;;;;;36.64;36.46;92731.63;5063737;28;20142;-74
2023/08/03 09:54:26;;;;;;;6.07;4.47;;;;;;;36.69;35.97;92733.16;5063305;28;20048;-74
2023/08/03 09:56:59;;;;;;;9.80;5.03;;;;;;;36.42;36.09;92736.25;5062687;28;20087;-75
2023/08/03 09:59:28;;;;;;;6.32;4.80;;;;;;;36.41;36.26;92740.84;5061990;28;20110;-75
2023/08/03 10:02:00;;;;;;;8.65;4.80;;;;;;;36.47;35.08;92743.88;5064003;28;21923;-74
2023/08/03 10:04:31;;;;;;;11.48;4.95;;;;;;;36.56;35.77;92733.53;5063164;28;20045;-74
2023/08/03 10:07:04;;;;;;;8.50;5.20;;;;;;;36.73;35.86;92739.22;5062016;28;20044;-75
2023/08/03 10:09:40;;;;;;;6.65;5.55;;;;;;;36.43;35.25;92741.22;5063406;28;20048;-74
2023/08/03 10:12:13;;;;;;;7.68;5.10;;;;;;;36.46;35.81;92712.94;5063501;28;20094;-74
2023/08/03 10:14:42;;;;;;;8.40;5.18;;;;;;;36.62;34.83;92731.25;5062355;28;20110;-74
2023/08/03 10:17:11;;;;;;;6.60;4.50;;;;;;;36.75;35.20;92728.91;5063299;28;20045;-74
2023/08/03 10:19:40;;;;;;;9.43;4.75;;;;;;;36.78;33.28;92717.41;5062385;28;20048;-74
2023/08/03 10:22:08;;;;;;;9.18;5.07;;;;;;;36.85;35.22;92711.28;5063711;28;20052;-74
2023/08/03 10:24:35;;;;;;;8.55;4.75;;;;;;;36.77;34.49;92716.66;5063050;28;20148;-74
2023/08/03 10:27:17;;;;;;;7.45;4.53;;;;;;;37.09;35.25;92714.97;5063570;28;20055;-74
2023/08/03 10:29:53;;;;;;;6.43;3.90;;;;;;;36.98;33.58;92696.28;5065607;28;20079;-74
2023/08/03 10:32:21;;;;;;;5.72;4.13;;;;;;;36.94;33.88;92684.84;5065135;28;22349;-75
2023/08/03 10:34:52;;;;;;;5.53;3.78;;;;;;;36.97;33.81;92707.41;5064077;28;20573;-74
2023/08/03 10:37:19;;;;;;;6.10;4.13;;;;;;;36.86;33.86;92683.34;5064685;28;20151;-74
2023/08/03 10:39:54;;;;;;;6.22;4.43;;;;;;;36.90;33.74;92692.13;5062881;28;20529;-74
2023/08/03 10:42:25;;;;;;;7.90;4.47;;;;;;;37.06;34.08;92706.97;5063652;28;20060;-76
2023/08/03 10:44:52;;;;;;;6.38;4.32;;;;;;;37.13;33.15;92686.28;5065727;28;20044;-75
2023/08/03 10:47:27;;;;;;;7.22;5.43;;;;;;;37.17;33.77;92708.44;5060957;28;20088;-73
2023/08/03 10:49:59;;;;;;;6.20;4.03;;;;;;;37.24;33.84;92688.88;5063390;28;20757;-73
2023/08/03 10:52:30;;;;;;;6.05;4.53;;;;;;;37.53;33.79;92707.41;5063888;28;20045;-74
2023/08/03 10:55:20;;;;;;;7.15;4.32;;;;;;;37.64;33.72;92696.66;5062711;28;20051;-73
2023/08/03 10:57:47;;;;;;;8.65;4.57;;;;;;;37.81;33.46;92700.34;5064295;28;20132;-74
2023/08/03 11:00:14;;;;;;;6.82;5.00;;;;;;;38.05;32.72;92703.19;5063494;28;20044;-74
2023/08/03 11:02:43;;;;;;;6.80;4.13;;;;;;;38.19;31.97;92698.84;5064020;28;20041;-74
2023/08/03 11:05:12;;;;;;;6.22;4.10;;;;;;;38.40;32.45;92694.44;5065336;28;20090;-74
2023/08/03 11:07:40;;;;;;;4.53;3.65;;;;;;;38.38;30.79;92689.47;5063423;28;20485;-73
2023/08/03 11:10:09;;;;;;;4.60;3.42;;;;;;;37.92;31.11;92689.53;5061821;28;20449;-74
2023/08/03 11:12:36;;;;;;;5.05;3.05;;;;;;;38.23;31.22;92689.59;5064613;28;20145;-73
2023/08/03 11:15:05;;;;;;;7.18;3.97;;;;;;;38.41;31.91;92685.22;5064995;28;20045;-74
2023/08/03 11:17:34;;;;;;;11.40;4.07;;;;;;;38.50;31.86;92686.25;5064479;28;20048;-73
2023/08/03 11:20:02;;;;;;;8.45;3.42;;;;;;;38.38;30.73;92681.41;5065051;28;20156;-74
2023/08/03 11:22:31;;;;;;;5.90;3.80;;;;;;;38.62;31.81;92681.53;5065397;28;20510;-74
2023/08/03 11:25:00;;;;;;;6.55;3.22;;;;;;;38.83;31.20;92658.25;5062758;28;20045;-74